DAL4382 SAVC-SAVE
Flight info
| Callsign | DAL4382 |
|---|---|
| Flight time | 0h 46m |
| Altitude | 36000 |
| Route | EGEGU2G EGEGU DCT IROLA DCT ASUTO DCT TEPUB DCT GIMBI |
| Aircraft | B738/M-SDE2E3FGHIRWXY/LB1 |
Departure
| Time | 2026-04-15 21:34 |
|---|---|
| Airport | General Enrique Mosconi International Airport (SAVC) |
Arrival
| Time | 2026-04-15 22:20 |
|---|---|
| Airport | Esquel Brigadier Antonio Parodi International Airport (SAVE) |
| Time | Latitude | Longitude | Altitude | Speed | Heading |
|---|---|---|---|---|---|
| 2026-04-15 21:23 | -45.78955 | -67.46896 | 137 ft | 0 kts | 235° |
| 2026-04-15 21:26 | -45.78941 | -67.46872 | 136 ft | 4 kts | 220° |
| 2026-04-15 21:26 | -45.78921 | -67.46857 | 135 ft | 4 kts | 164° |
| 2026-04-15 21:27 | -45.78912 | -67.46867 | 135 ft | 1 kts | 88° |
| 2026-04-15 21:28 | -45.78912 | -67.46863 | 135 ft | 2 kts | 88° |
| 2026-04-15 21:29 | -45.78905 | -67.46817 | 133 ft | 7 kts | 54° |
| 2026-04-15 21:29 | -45.78850 | -67.46797 | 132 ft | 9 kts | 359° |
| 2026-04-15 21:29 | -45.78790 | -67.46803 | 131 ft | 8 kts | 358° |
| 2026-04-15 21:29 | -45.78749 | -67.46758 | 128 ft | 9 kts | 79° |
| 2026-04-15 21:30 | -45.78734 | -67.46639 | 124 ft | 14 kts | 79° |
| 2026-04-15 21:30 | -45.78715 | -67.46492 | 132 ft | 16 kts | 79° |
| 2026-04-15 21:30 | -45.78689 | -67.46299 | 123 ft | 24 kts | 79° |
| 2026-04-15 21:30 | -45.78656 | -67.46060 | 118 ft | 24 kts | 79° |
| 2026-04-15 21:31 | -45.78596 | -67.45607 | 111 ft | 22 kts | 79° |
| 2026-04-15 21:31 | -45.78569 | -67.45392 | 111 ft | 22 kts | 79° |
| 2026-04-15 21:32 | -45.78514 | -67.44981 | 106 ft | 20 kts | 79° |
| 2026-04-15 21:32 | -45.78470 | -67.44871 | 105 ft | 11 kts | 30° |
| 2026-04-15 21:32 | -45.78402 | -67.44835 | 103 ft | 10 kts | 11° |
| 2026-04-15 21:32 | -45.78325 | -67.44862 | 104 ft | 13 kts | 320° |
| 2026-04-15 21:33 | -45.78323 | -67.45023 | 107 ft | 23 kts | 258° |
| 2026-04-15 21:33 | -45.78391 | -67.45553 | 114 ft | 87 kts | 259° |
| 2026-04-15 21:33 | -45.78542 | -67.46696 | 126 ft | 144 kts | 259° |
| 2026-04-15 21:33 | -45.78732 | -67.48241 | 470 ft | 163 kts | 259° |
| 2026-04-15 21:34 | -45.79059 | -67.49837 | 1144 ft | 171 kts | 251° |
| 2026-04-15 21:34 | -45.79582 | -67.51428 | 1698 ft | 182 kts | 245° |
| 2026-04-15 21:34 | -45.80234 | -67.53050 | 2275 ft | 194 kts | 244° |
| 2026-04-15 21:34 | -45.80943 | -67.54776 | 2703 ft | 208 kts | 245° |
| 2026-04-15 21:35 | -45.81638 | -67.56650 | 2948 ft | 222 kts | 249° |
| 2026-04-15 21:35 | -45.81865 | -67.57328 | 3093 ft | 225 kts | 249° |
| 2026-04-15 21:35 | -45.82496 | -67.59286 | 3633 ft | 229 kts | 251° |
| 2026-04-15 21:35 | -45.82959 | -67.61451 | 4322 ft | 227 kts | 265° |
| 2026-04-15 21:36 | -45.82987 | -67.63657 | 5100 ft | 220 kts | 280° |
| 2026-04-15 21:36 | -45.82672 | -67.65820 | 5739 ft | 223 kts | 292° |
| 2026-04-15 21:36 | -45.82005 | -67.67807 | 6478 ft | 222 kts | 304° |
| 2026-04-15 21:36 | -45.80989 | -67.69501 | 7084 ft | 228 kts | 319° |
| 2026-04-15 21:37 | -45.79682 | -67.70774 | 7853 ft | 229 kts | 331° |
| 2026-04-15 21:37 | -45.78204 | -67.71658 | 8606 ft | 231 kts | 342° |
| 2026-04-15 21:37 | -45.76630 | -67.72219 | 9300 ft | 237 kts | 346° |
| 2026-04-15 21:37 | -45.75034 | -67.72717 | 10046 ft | 237 kts | 346° |
| 2026-04-15 21:38 | -45.73436 | -67.73213 | 10846 ft | 235 kts | 346° |
| 2026-04-15 21:38 | -45.71823 | -67.73723 | 11484 ft | 241 kts | 344° |
| 2026-04-15 21:38 | -45.70241 | -67.74528 | 12210 ft | 242 kts | 336° |
| 2026-04-15 21:38 | -45.68705 | -67.75481 | 13053 ft | 240 kts | 336° |
| 2026-04-15 21:39 | -45.67165 | -67.76459 | 13795 ft | 244 kts | 335° |
| 2026-04-15 21:39 | -45.65592 | -67.77452 | 14374 ft | 253 kts | 335° |
| 2026-04-15 21:39 | -45.63906 | -67.78509 | 14579 ft | 277 kts | 335° |
| 2026-04-15 21:39 | -45.62061 | -67.79656 | 14762 ft | 301 kts | 336° |
| 2026-04-15 21:40 | -45.60056 | -67.80894 | 14927 ft | 325 kts | 336° |
| 2026-04-15 21:40 | -45.57907 | -67.82213 | 15083 ft | 346 kts | 336° |
| 2026-04-15 21:40 | -45.55634 | -67.83602 | 15220 ft | 365 kts | 336° |
| 2026-04-15 21:40 | -45.53275 | -67.85039 | 15422 ft | 379 kts | 336° |
| 2026-04-15 21:41 | -45.50827 | -67.86527 | 15890 ft | 385 kts | 336° |
| 2026-04-15 21:41 | -45.48357 | -67.88025 | 16491 ft | 386 kts | 336° |
| 2026-04-15 21:41 | -45.45874 | -67.89531 | 17093 ft | 388 kts | 336° |
| 2026-04-15 21:41 | -45.43382 | -67.91041 | 17670 ft | 391 kts | 336° |
| 2026-04-15 21:42 | -45.40863 | -67.92567 | 18199 ft | 394 kts | 336° |
| 2026-04-15 21:42 | -45.40012 | -67.93082 | 18360 ft | 395 kts | 336° |
| 2026-04-15 21:42 | -45.37607 | -67.94537 | 18803 ft | 398 kts | 336° |
| 2026-04-15 21:42 | -45.35046 | -67.96084 | 19272 ft | 401 kts | 336° |
| 2026-04-15 21:43 | -45.32412 | -67.97428 | 19708 ft | 406 kts | 344° |
| 2026-04-15 21:43 | -45.29626 | -67.98236 | 20163 ft | 410 kts | 347° |
| 2026-04-15 21:43 | -45.26800 | -67.98941 | 20604 ft | 413 kts | 348° |
| 2026-04-15 21:43 | -45.23999 | -67.99640 | 21023 ft | 416 kts | 347° |
| 2026-04-15 21:44 | -45.21139 | -68.00380 | 21421 ft | 420 kts | 347° |
| 2026-04-15 21:44 | -45.18256 | -68.01152 | 21804 ft | 423 kts | 347° |
| 2026-04-15 21:44 | -45.15354 | -68.01947 | 22217 ft | 426 kts | 346° |
| 2026-04-15 21:44 | -45.12442 | -68.02753 | 22624 ft | 428 kts | 346° |
| 2026-04-15 21:45 | -45.09506 | -68.03567 | 23010 ft | 431 kts | 346° |
| 2026-04-15 21:45 | -45.06556 | -68.04383 | 23383 ft | 434 kts | 346° |
| 2026-04-15 21:45 | -45.03572 | -68.05207 | 23700 ft | 437 kts | 346° |
| 2026-04-15 21:45 | -45.00585 | -68.06063 | 24010 ft | 438 kts | 343° |
| 2026-04-15 21:46 | -44.97768 | -68.07655 | 24273 ft | 437 kts | 327° |
| 2026-04-15 21:46 | -44.95221 | -68.09996 | 24604 ft | 438 kts | 326° |
| 2026-04-15 21:46 | -44.92651 | -68.12317 | 24911 ft | 440 kts | 326° |
| 2026-04-15 21:46 | -44.90049 | -68.14622 | 25219 ft | 442 kts | 326° |
| 2026-04-15 21:47 | -44.87432 | -68.16914 | 25513 ft | 444 kts | 326° |
| 2026-04-15 21:47 | -44.84801 | -68.19202 | 25821 ft | 445 kts | 327° |
| 2026-04-15 21:47 | -44.82152 | -68.21499 | 26098 ft | 447 kts | 327° |
| 2026-04-15 21:47 | -44.79523 | -68.23774 | 26374 ft | 449 kts | 327° |
| 2026-04-15 21:48 | -44.76860 | -68.26077 | 26637 ft | 450 kts | 327° |
| 2026-04-15 21:48 | -44.74188 | -68.28387 | 26920 ft | 450 kts | 327° |
| 2026-04-15 21:48 | -44.71524 | -68.30688 | 27290 ft | 449 kts | 327° |
| 2026-04-15 21:48 | -44.68864 | -68.32981 | 27742 ft | 446 kts | 326° |
| 2026-04-15 21:49 | -44.66235 | -68.35248 | 28260 ft | 442 kts | 326° |
| 2026-04-15 21:49 | -44.63612 | -68.37509 | 28649 ft | 442 kts | 326° |
| 2026-04-15 21:49 | -44.61023 | -68.39738 | 28973 ft | 442 kts | 326° |
| 2026-04-15 21:49 | -44.58398 | -68.41997 | 29345 ft | 441 kts | 326° |
| 2026-04-15 21:50 | -44.55783 | -68.44243 | 29763 ft | 440 kts | 326° |
| 2026-04-15 21:50 | -44.53184 | -68.46473 | 30143 ft | 438 kts | 326° |
| 2026-04-15 21:50 | -44.50579 | -68.48706 | 30503 ft | 437 kts | 326° |
| 2026-04-15 21:50 | -44.47988 | -68.50923 | 30842 ft | 436 kts | 326° |
| 2026-04-15 21:51 | -44.45398 | -68.53138 | 31151 ft | 435 kts | 326° |
| 2026-04-15 21:51 | -44.42818 | -68.55342 | 31496 ft | 434 kts | 326° |
| 2026-04-15 21:51 | -44.40244 | -68.57539 | 31884 ft | 431 kts | 326° |
| 2026-04-15 21:51 | -44.37719 | -68.59692 | 32254 ft | 429 kts | 326° |
| 2026-04-15 21:52 | -44.35176 | -68.61858 | 32582 ft | 429 kts | 326° |
| 2026-04-15 21:52 | -44.32629 | -68.64025 | 32896 ft | 428 kts | 326° |
| 2026-04-15 21:52 | -44.30084 | -68.66189 | 33174 ft | 428 kts | 326° |
| 2026-04-15 21:52 | -44.27537 | -68.68352 | 33488 ft | 427 kts | 326° |
| 2026-04-15 21:53 | -44.24999 | -68.70505 | 33837 ft | 426 kts | 326° |
| 2026-04-15 21:53 | -44.22475 | -68.72643 | 34138 ft | 424 kts | 326° |
| 2026-04-15 21:53 | -44.19950 | -68.74780 | 34413 ft | 423 kts | 326° |
| 2026-04-15 21:53 | -44.17437 | -68.76906 | 34670 ft | 422 kts | 326° |
| 2026-04-15 21:54 | -44.14925 | -68.79027 | 34935 ft | 421 kts | 326° |
| 2026-04-15 21:54 | -44.12411 | -68.81150 | 35191 ft | 421 kts | 326° |
| 2026-04-15 21:54 | -44.09944 | -68.83229 | 35451 ft | 420 kts | 326° |
| 2026-04-15 21:54 | -44.07448 | -68.85331 | 35709 ft | 419 kts | 326° |
| 2026-04-15 21:55 | -44.04954 | -68.87430 | 35866 ft | 420 kts | 326° |
| 2026-04-15 21:55 | -43.99937 | -68.91646 | 35854 ft | 420 kts | 326° |
| 2026-04-15 21:56 | -43.94961 | -68.95818 | 35850 ft | 417 kts | 327° |
| 2026-04-15 21:56 | -43.90003 | -68.99967 | 35868 ft | 415 kts | 327° |
| 2026-04-15 21:57 | -43.85059 | -69.04096 | 35865 ft | 414 kts | 327° |
| 2026-04-15 21:57 | -43.80113 | -69.08220 | 35853 ft | 415 kts | 327° |
| 2026-04-15 21:58 | -43.75162 | -69.12339 | 35788 ft | 418 kts | 327° |
| 2026-04-15 21:58 | -43.72638 | -69.14438 | 35232 ft | 427 kts | 327° |
| 2026-04-15 21:58 | -43.70118 | -69.16530 | 34779 ft | 426 kts | 327° |
| 2026-04-15 21:58 | -43.67545 | -69.18662 | 34273 ft | 424 kts | 327° |
| 2026-04-15 21:59 | -43.65019 | -69.20753 | 33780 ft | 424 kts | 327° |
| 2026-04-15 21:59 | -43.62480 | -69.22853 | 33210 ft | 426 kts | 327° |
| 2026-04-15 21:59 | -43.59930 | -69.24961 | 32667 ft | 428 kts | 327° |
| 2026-04-15 21:59 | -43.57399 | -69.27052 | 32132 ft | 430 kts | 327° |
| 2026-04-15 22:00 | -43.54825 | -69.29176 | 31612 ft | 431 kts | 327° |
| 2026-04-15 22:00 | -43.52242 | -69.31304 | 31112 ft | 432 kts | 327° |
| 2026-04-15 22:00 | -43.49658 | -69.33432 | 30632 ft | 433 kts | 327° |
| 2026-04-15 22:00 | -43.47065 | -69.35564 | 30147 ft | 435 kts | 327° |
| 2026-04-15 22:01 | -43.44464 | -69.37701 | 29639 ft | 436 kts | 327° |
| 2026-04-15 22:01 | -43.41847 | -69.39850 | 29094 ft | 440 kts | 327° |
| 2026-04-15 22:01 | -43.39192 | -69.42028 | 28552 ft | 446 kts | 327° |
| 2026-04-15 22:01 | -43.36522 | -69.44216 | 27966 ft | 446 kts | 327° |
| 2026-04-15 22:02 | -43.34755 | -69.45661 | 27591 ft | 446 kts | 327° |
| 2026-04-15 22:02 | -43.32081 | -69.47847 | 27016 ft | 447 kts | 328° |
| 2026-04-15 22:02 | -43.29413 | -69.50025 | 26440 ft | 448 kts | 328° |
| 2026-04-15 22:02 | -43.26728 | -69.52216 | 25824 ft | 449 kts | 328° |
| 2026-04-15 22:03 | -43.24029 | -69.54417 | 25225 ft | 451 kts | 328° |
| 2026-04-15 22:03 | -43.21336 | -69.56610 | 24639 ft | 451 kts | 328° |
| 2026-04-15 22:03 | -43.18640 | -69.58803 | 24061 ft | 446 kts | 328° |
| 2026-04-15 22:03 | -43.15990 | -69.60956 | 23497 ft | 438 kts | 328° |
| 2026-04-15 22:04 | -43.13387 | -69.63069 | 22829 ft | 430 kts | 328° |
| 2026-04-15 22:04 | -43.10874 | -69.65108 | 22177 ft | 422 kts | 328° |
| 2026-04-15 22:04 | -43.08373 | -69.67136 | 21538 ft | 414 kts | 329° |
| 2026-04-15 22:04 | -43.05908 | -69.69132 | 20908 ft | 407 kts | 329° |
| 2026-04-15 22:05 | -43.03490 | -69.71087 | 20294 ft | 401 kts | 329° |
| 2026-04-15 22:05 | -43.01190 | -69.73180 | 19672 ft | 396 kts | 318° |
| 2026-04-15 22:05 | -42.99460 | -69.76075 | 19086 ft | 392 kts | 303° |
| 2026-04-15 22:05 | -42.98288 | -69.79431 | 18515 ft | 392 kts | 291° |
| 2026-04-15 22:06 | -42.97745 | -69.83077 | 17912 ft | 392 kts | 279° |
| 2026-04-15 22:06 | -42.97483 | -69.86756 | 17286 ft | 388 kts | 278° |
| 2026-04-15 22:06 | -42.97261 | -69.90416 | 16704 ft | 383 kts | 278° |
| 2026-04-15 22:06 | -42.97046 | -69.94013 | 16201 ft | 377 kts | 278° |
| 2026-04-15 22:07 | -42.96825 | -69.97552 | 15713 ft | 371 kts | 278° |
| 2026-04-15 22:07 | -42.96596 | -70.01027 | 15250 ft | 365 kts | 279° |
| 2026-04-15 22:07 | -42.96364 | -70.04446 | 14798 ft | 359 kts | 279° |
| 2026-04-15 22:07 | -42.96132 | -70.07772 | 14351 ft | 354 kts | 279° |
| 2026-04-15 22:08 | -42.95895 | -70.11099 | 13917 ft | 350 kts | 279° |
| 2026-04-15 22:08 | -42.95659 | -70.14388 | 13505 ft | 345 kts | 279° |
| 2026-04-15 22:08 | -42.95426 | -70.17625 | 13061 ft | 341 kts | 279° |
| 2026-04-15 22:08 | -42.95194 | -70.20830 | 12631 ft | 337 kts | 279° |
| 2026-04-15 22:09 | -42.94965 | -70.23988 | 12199 ft | 333 kts | 279° |
| 2026-04-15 22:09 | -42.94738 | -70.27112 | 11780 ft | 329 kts | 279° |
| 2026-04-15 22:09 | -42.94512 | -70.30207 | 11355 ft | 326 kts | 279° |
| 2026-04-15 22:09 | -42.94289 | -70.33265 | 10943 ft | 322 kts | 279° |
| 2026-04-15 22:10 | -42.94069 | -70.36268 | 10745 ft | 312 kts | 279° |
| 2026-04-15 22:10 | -42.93857 | -70.39159 | 10614 ft | 301 kts | 279° |
| 2026-04-15 22:10 | -42.93619 | -70.41945 | 10480 ft | 290 kts | 284° |
| 2026-04-15 22:10 | -42.93003 | -70.44487 | 10362 ft | 277 kts | 296° |
| 2026-04-15 22:11 | -42.92199 | -70.46827 | 10191 ft | 269 kts | 298° |
| 2026-04-15 22:11 | -42.91387 | -70.49110 | 9919 ft | 267 kts | 298° |
| 2026-04-15 22:11 | -42.90580 | -70.51375 | 9651 ft | 264 kts | 298° |
| 2026-04-15 22:11 | -42.89782 | -70.53623 | 9364 ft | 262 kts | 297° |
| 2026-04-15 22:12 | -42.88994 | -70.55855 | 9090 ft | 260 kts | 297° |
| 2026-04-15 22:12 | -42.88212 | -70.58073 | 8811 ft | 259 kts | 297° |
| 2026-04-15 22:12 | -42.87438 | -70.60276 | 8529 ft | 257 kts | 297° |
| 2026-04-15 22:12 | -42.86681 | -70.62433 | 8283 ft | 254 kts | 297° |
| 2026-04-15 22:13 | -42.85922 | -70.64597 | 8042 ft | 251 kts | 297° |
| 2026-04-15 22:13 | -42.85170 | -70.66741 | 7822 ft | 252 kts | 297° |
| 2026-04-15 22:13 | -42.84411 | -70.68901 | 7610 ft | 254 kts | 297° |
| 2026-04-15 22:13 | -42.83641 | -70.71092 | 7390 ft | 257 kts | 297° |
| 2026-04-15 22:14 | -42.82870 | -70.73287 | 7175 ft | 255 kts | 297° |
| 2026-04-15 22:14 | -42.82117 | -70.75431 | 7038 ft | 247 kts | 297° |
| 2026-04-15 22:14 | -42.81382 | -70.77524 | 6896 ft | 242 kts | 297° |
| 2026-04-15 22:14 | -42.80666 | -70.79556 | 6769 ft | 234 kts | 297° |
| 2026-04-15 22:15 | -42.79973 | -70.81525 | 6667 ft | 226 kts | 297° |
| 2026-04-15 22:15 | -42.79302 | -70.83427 | 6570 ft | 221 kts | 298° |
| 2026-04-15 22:15 | -42.78651 | -70.85272 | 6472 ft | 216 kts | 296° |
| 2026-04-15 22:15 | -42.78344 | -70.87249 | 6329 ft | 219 kts | 263° |
| 2026-04-15 22:16 | -42.78953 | -70.89118 | 6281 ft | 213 kts | 244° |
| 2026-04-15 22:16 | -42.79681 | -70.90829 | 6163 ft | 207 kts | 244° |
| 2026-04-15 22:16 | -42.80433 | -70.92499 | 5919 ft | 206 kts | 240° |
| 2026-04-15 22:16 | -42.81200 | -70.94127 | 5665 ft | 203 kts | 241° |
| 2026-04-15 22:17 | -42.81959 | -70.95734 | 5391 ft | 199 kts | 242° |
| 2026-04-15 22:17 | -42.82704 | -70.97313 | 5137 ft | 197 kts | 242° |
| 2026-04-15 22:17 | -42.83443 | -70.98883 | 4872 ft | 196 kts | 241° |
| 2026-04-15 22:17 | -42.84175 | -71.00431 | 4607 ft | 191 kts | 240° |
| 2026-04-15 22:18 | -42.84872 | -71.01904 | 4360 ft | 180 kts | 239° |
| 2026-04-15 22:18 | -42.85523 | -71.03286 | 4153 ft | 165 kts | 239° |
| 2026-04-15 22:18 | -42.86123 | -71.04557 | 3904 ft | 160 kts | 238° |
| 2026-04-15 22:18 | -42.86728 | -71.05827 | 3720 ft | 160 kts | 238° |
| 2026-04-15 22:19 | -42.87338 | -71.07098 | 3510 ft | 161 kts | 239° |
| 2026-04-15 22:19 | -42.87925 | -71.08387 | 3307 ft | 160 kts | 239° |
| 2026-04-15 22:19 | -42.88521 | -71.09659 | 3091 ft | 158 kts | 238° |
| 2026-04-15 22:19 | -42.89136 | -71.10903 | 2856 ft | 158 kts | 238° |
| 2026-04-15 22:20 | -42.89718 | -71.12151 | 2649 ft | 154 kts | 239° |
| 2026-04-15 22:20 | -42.90263 | -71.13304 | 2595 ft | 126 kts | 238° |
| 2026-04-15 22:20 | -42.90622 | -71.14059 | 2605 ft | 64 kts | 237° |
| 2026-04-15 22:20 | -42.90732 | -71.14357 | 2609 ft | 21 kts | 257° |
| 2026-04-15 22:21 | -42.90743 | -71.14489 | 2611 ft | 13 kts | 267° |
| 2026-04-15 22:21 | -42.90720 | -71.14578 | 2611 ft | 7 kts | 319° |
| 2026-04-15 22:21 | -42.90690 | -71.14617 | 2611 ft | 5 kts | 303° |
| 2026-04-15 22:21 | -42.90682 | -71.14660 | 2611 ft | 5 kts | 290° |
| 2026-04-15 22:22 | -42.90663 | -71.14681 | 2611 ft | 2 kts | 329° |
| 2026-04-15 22:22 | -42.90657 | -71.14686 | 2611 ft | 0 kts | 332° |
| 2026-04-15 22:22 | -42.90656 | -71.14686 | 2611 ft | 0 kts | 332° |